Los Angeles, CA (90089)

4:55 AM PDT on August 28, 2016 (GMT -0700)
Natural History Museum | | Change Station

Elev 207 ft 34.02 °N, 118.29 °W | Updated 37 seconds ago

Clear
Clear
60.4 °F
Feels Like 60.4 °F
N
0.0
Wind Variable Wind from East
Gusts 0.0 mph

Today
High -- | Low -- °F
--% Chance of Precip.
Yesterday
High -- | Low -- °F
Precip. -- in
Pressure 29.98 in
Visibility 10.0 miles
Clouds Clear
Dew Point 58 °F
Humidity 92%
Rainfall 0.00 in
Snow Depth Not available.
6:24 AM 7:23 PM
Waning Crescent, 16% visible
METAR KCQT 281147Z AUTO 00000KT 10SM CLR 18/15 A2998 RMK AO2 SLP150 7//// T01780150 10189 20172 55001 $
Pressure 29.98 in
Visibility 10.0 miles
Clouds Clear
Dew Point 58 °F
Humidity 92%
Rainfall 0.00 in
Snow Depth Not available.
6:24 AM 7:23 PM
Waning Crescent, 16% visible
METAR KCQT 281147Z AUTO 00000KT 10SM CLR 18/15 A2998 RMK AO2 SLP150 7//// T01780150 10189 20172 55001 $

10-Day Weather Forecast

Almanac

Astronomy

Aug. 28, 2016 Rise Set
Actual Time
Civil Twilight
Nautical Twilight
Astronomical Twilight
Moon
Length of Visible Light
Length of Day
Tomorrow will be .
, % of the Moon is Illuminated

Today's Extremes

State Highs State Lows

Community

WunderPhotos

Upload Photos

1,935,549 photos uploaded!

WunderBlog® & News

Nearby

Air Quality

  Air Quality AQ Index Pollutant
Not available.

Snow Depth

Station Depth Elevation

Earthquake Activity

City Distance Mag. Time & Date
Minimum magnitude displayed is 2.5.

Coastal Water Temperatures

Place Temperature

Stations

Nearby Weather Stations

Station Location Temp. Windchill Dew Point Humidity Wind Precip. Elev Updated Type
                   

Watches & Warnings

There are currently no watches in effect.